createdAt,value
2018-11-20T00:01:33.367Z,81.30
2018-11-20T00:04:20.330Z,81.30
2018-11-20T00:07:08.332Z,81.40
2018-11-20T00:10:05.319Z,81.70
2018-11-20T00:12:53.326Z,82.20
2018-11-20T00:15:39.865Z,82.20
2018-11-20T00:18:18.956Z,82.60
2018-11-20T00:21:18.811Z,82.80
2018-11-20T00:23:59.398Z,83.00
2018-11-20T00:26:46.198Z,82.80
2018-11-20T00:29:32.112Z,83.00
2018-11-20T00:32:24.945Z,82.70
2018-11-20T00:35:31.228Z,82.50
2018-11-20T00:38:19.189Z,82.10
2018-11-20T00:41:01.544Z,82.70
2018-11-20T00:44:01.635Z,82.50
2018-11-20T00:46:52.236Z,82.60
2018-11-20T00:49:38.997Z,82.80
2018-11-20T00:52:39.227Z,82.80
2018-11-20T00:56:05.150Z,82.90
2018-11-20T00:58:51.112Z,82.80
2018-11-20T01:01:37.850Z,83.40
2018-11-20T01:04:28.607Z,83.30
2018-11-20T01:07:08.145Z,83.90
2018-11-20T01:09:55.138Z,83.70
2018-11-20T01:12:34.707Z,83.70
2018-11-20T01:15:21.294Z,83.80
2018-11-20T01:18:14.763Z,84.00
2018-11-20T01:21:07.863Z,84.20
2018-11-20T01:23:48.424Z,84.30
2018-11-20T01:26:42.206Z,84.50
2018-11-20T01:29:23.261Z,84.50
2018-11-20T01:32:19.798Z,84.90
2018-11-20T01:35:06.464Z,85.10
2018-11-20T01:38:06.575Z,85.30
2018-11-20T01:40:54.276Z,85.30
2018-11-20T01:43:42.180Z,85.00
2018-11-20T01:46:34.952Z,84.70
2018-11-20T01:49:35.028Z,84.70
2018-11-20T01:52:15.815Z,84.40
2018-11-20T01:54:53.857Z,84.40
2018-11-20T01:57:50.081Z,84.00
2018-11-20T02:00:36.812Z,84.30
2018-11-20T02:03:23.607Z,84.30
2018-11-20T02:06:23.778Z,83.80
2018-11-20T02:09:20.670Z,84.10
2018-11-20T02:12:11.444Z,83.50
2018-11-20T02:14:57.932Z,82.90
2018-11-20T02:18:13.791Z,82.10
2018-11-20T02:21:09.259Z,82.30
2018-11-20T02:23:49.518Z,82.30
2018-11-20T02:26:29.083Z,82.20
2018-11-20T02:29:29.380Z,82.20
2018-11-20T02:32:35.300Z,82.90
2018-11-20T02:35:29.198Z,82.60
2018-11-20T02:38:20.001Z,83.30
2018-11-20T02:41:10.872Z,83.30
2018-11-20T02:43:58.806Z,83.20
2018-11-20T02:46:46.038Z,84.20
2018-11-20T02:49:33.283Z,83.30
2018-11-20T02:52:32.982Z,83.70
2018-11-20T02:55:39.196Z,83.80
2018-11-20T02:58:25.823Z,83.50
2018-11-20T03:01:19.921Z,83.60
2018-11-20T03:04:20.075Z,83.20
2018-11-20T03:07:26.540Z,83.10
2018-11-20T03:10:10.377Z,83.20
2018-11-20T03:13:04.956Z,83.20
2018-11-20T03:15:52.905Z,83.40
2018-11-20T03:18:40.866Z,82.90
2018-11-20T03:21:40.794Z,83.20
2018-11-20T03:24:31.221Z,83.20
2018-11-20T03:27:17.684Z,83.30
2018-11-20T03:30:53.568Z,83.60
2018-11-20T03:33:50.476Z,83.90
2018-11-20T03:36:36.949Z,83.90
2018-11-20T03:39:39.582Z,83.50
2018-11-20T03:42:34.053Z,84.00
2018-11-20T03:45:27.791Z,84.10
2018-11-20T03:48:14.608Z,84.00
2018-11-20T03:51:05.439Z,84.30
2018-11-20T03:54:05.572Z,84.60
2018-11-20T03:57:00.665Z,84.80
2018-11-20T03:59:48.308Z,84.90
2018-11-20T04:02:45.765Z,85.10
2018-11-20T04:05:32.439Z,85.40
2018-11-20T04:08:19.363Z,85.60
2018-11-20T04:11:06.036Z,85.90
2018-11-20T04:13:41.057Z,86.20
2018-11-20T04:16:27.665Z,86.50
2018-11-20T04:19:13.665Z,86.90
2018-11-20T04:22:04.851Z,87.10
2018-11-20T04:24:50.647Z,87.50
2018-11-20T04:27:56.732Z,87.80
2018-11-20T04:31:11.491Z,87.80
2018-11-20T04:34:12.381Z,87.50
2018-11-20T04:37:27.682Z,87.50
2018-11-20T04:40:07.179Z,87.50
2018-11-20T04:42:56.528Z,87.70
2018-11-20T04:45:44.005Z,87.40
2018-11-20T04:48:44.044Z,87.70
2018-11-20T04:51:40.913Z,87.30
2018-11-20T04:54:28.130Z,87.30
2018-11-20T04:57:14.961Z,87.80
2018-11-20T05:00:01.571Z,87.30
2018-11-20T05:02:51.977Z,87.50
2018-11-20T05:05:44.938Z,87.50
2018-11-20T05:08:30.551Z,87.40
2018-11-20T05:11:09.970Z,87.30
2018-11-20T05:14:00.671Z,87.10
2018-11-20T05:16:42.455Z,87.30
2018-11-20T05:19:30.347Z,87.40
2018-11-20T05:22:17.099Z,87.40
2018-11-20T05:25:05.017Z,87.20
2018-11-20T05:27:49.126Z,87.90
2018-11-20T05:30:29.333Z,87.70
2018-11-20T05:33:15.619Z,87.00
2018-11-20T05:36:12.284Z,87.00
2018-11-20T05:38:56.955Z,87.20
2018-11-20T05:41:44.838Z,86.90
2018-11-20T05:44:31.541Z,87.10
2018-11-20T05:47:26.003Z,87.10
2018-11-20T05:50:12.847Z,87.10
2018-11-20T05:53:13.176Z,87.00
2018-11-20T05:55:59.909Z,87.30
2018-11-20T05:58:49.785Z,87.40
2018-11-20T06:01:35.816Z,87.30
2018-11-20T06:04:23.719Z,87.40
2018-11-20T06:07:14.662Z,87.60
2018-11-20T06:10:03.282Z,87.30
2018-11-20T06:13:03.082Z,87.40
2018-11-20T06:15:44.260Z,87.40
2018-11-20T06:18:44.454Z,87.30
2018-11-20T06:21:47.476Z,87.00
2018-11-20T06:24:38.331Z,87.10
2018-11-20T06:27:29.460Z,86.80
2018-11-20T06:30:16.092Z,86.80
2018-11-20T06:33:00.157Z,86.90
2018-11-20T06:35:36.784Z,86.60
2018-11-20T06:38:23.386Z,86.50
2018-11-20T06:41:16.101Z,86.50
2018-11-20T06:44:13.175Z,86.10
2018-11-20T06:47:09.852Z,85.90
2018-11-20T06:49:57.716Z,86.30
2018-11-20T06:52:44.507Z,87.10
2018-11-20T06:55:31.783Z,86.00
2018-11-20T06:58:18.453Z,86.00
2018-11-20T07:01:05.007Z,86.10
2018-11-20T07:03:51.918Z,85.70
2018-11-20T07:06:32.104Z,85.80
2018-11-20T07:09:22.942Z,85.80
2018-11-20T07:12:13.921Z,86.10
2018-11-20T07:14:56.952Z,86.10
2018-11-20T07:17:43.741Z,86.20
2018-11-20T07:20:30.623Z,86.30
2018-11-20T07:23:08.963Z,86.50
2018-11-20T07:26:09.191Z,86.30
2018-11-20T07:28:59.873Z,86.40
2018-11-20T07:31:46.644Z,86.40
2018-11-20T07:34:33.570Z,86.90
2018-11-20T07:37:24.638Z,86.00
2018-11-20T07:40:13.062Z,86.30
2018-11-20T07:43:16.323Z,85.80
2018-11-20T07:46:07.126Z,86.00
2018-11-20T07:49:10.811Z,86.00
2018-11-20T07:52:07.795Z,85.90
2018-11-20T07:54:54.391Z,86.10
2018-11-20T07:57:41.080Z,86.00
2018-11-20T08:00:22.300Z,86.10
2018-11-20T08:03:25.521Z,86.20
2018-11-20T08:06:06.176Z,86.40
2018-11-20T08:08:48.307Z,86.60
2018-11-20T08:11:37.508Z,86.30
2018-11-20T08:14:24.411Z,86.60
2018-11-20T08:17:11.919Z,86.70
2018-11-20T08:19:58.611Z,86.60
2018-11-20T08:22:45.654Z,86.70
2018-11-20T08:25:32.369Z,86.80
2018-11-20T08:28:19.065Z,86.80
2018-11-20T08:31:05.847Z,87.00
2018-11-20T08:33:53.769Z,87.10
2018-11-20T08:36:40.480Z,87.50
2018-11-20T08:39:27.935Z,87.10
2018-11-20T08:42:09.608Z,86.70
2018-11-20T08:44:57.524Z,86.60
2018-11-20T08:47:51.436Z,86.70
2018-11-20T08:50:28.626Z,86.30
2018-11-20T08:53:06.916Z,86.60
2018-11-20T08:55:46.493Z,86.70
2018-11-20T08:58:46.878Z,86.40
2018-11-20T09:01:39.296Z,86.20
2018-11-20T09:04:21.287Z,86.40
2018-11-20T09:07:09.243Z,86.30
2018-11-20T09:10:03.203Z,86.30
2018-11-20T09:12:51.043Z,86.00
2018-11-20T09:15:37.763Z,85.70
2018-11-20T09:18:24.428Z,87.00
2018-11-20T09:21:11.146Z,86.10
2018-11-20T09:23:57.837Z,86.00
2018-11-20T09:26:44.513Z,85.90
2018-11-20T09:29:41.508Z,86.10
2018-11-20T09:32:35.311Z,86.50
2018-11-20T09:35:22.385Z,86.20
2018-11-20T09:38:12.995Z,86.10
2018-11-20T09:41:16.956Z,85.40
2018-11-20T09:44:41.242Z,85.80
2018-11-20T09:47:28.263Z,85.80
2018-11-20T09:50:22.895Z,85.60
2018-11-20T09:53:09.463Z,85.60
2018-11-20T09:56:06.272Z,85.50
2018-11-20T09:58:59.782Z,85.60
2018-11-20T10:02:02.599Z,85.90
2018-11-20T10:05:00.340Z,85.90
2018-11-20T10:07:46.694Z,85.80
2018-11-20T10:10:40.157Z,85.80
2018-11-20T10:13:33.790Z,85.60
2018-11-20T10:16:21.509Z,85.90
2018-11-20T10:19:08.346Z,85.80
2018-11-20T10:21:59.059Z,85.90
2018-11-20T10:24:45.372Z,86.10
2018-11-20T10:27:38.679Z,85.90
2018-11-20T10:30:22.602Z,86.10
2018-11-20T10:33:08.897Z,86.30
2018-11-20T10:36:06.443Z,86.40
2018-11-20T10:38:52.954Z,86.20
2018-11-20T10:41:46.521Z,86.40
2018-11-20T10:44:49.351Z,86.40
2018-11-20T10:47:35.944Z,86.50
2018-11-20T10:50:32.639Z,86.80
2018-11-20T10:53:18.770Z,86.70
2018-11-20T10:56:09.238Z,86.50
2018-11-20T10:59:09.300Z,86.40
2018-11-20T11:01:55.859Z,86.40
2018-11-20T11:04:42.338Z,86.80
2018-11-20T11:07:19.262Z,86.70
2018-11-20T11:10:09.799Z,86.70
2018-11-20T11:13:06.855Z,86.90
2018-11-20T11:15:56.347Z,86.70
2018-11-20T11:18:46.620Z,87.00
2018-11-20T11:21:49.413Z,86.70
2018-11-20T11:24:45.762Z,86.60
2018-11-20T11:27:31.969Z,86.60
2018-11-20T11:30:38.281Z,86.80
2018-11-20T11:33:38.194Z,86.90
2018-11-20T11:36:32.696Z,86.40
2018-11-20T11:39:19.075Z,86.10
2018-11-20T11:42:18.661Z,86.50
2018-11-20T11:45:18.100Z,85.80
2018-11-20T11:48:20.853Z,86.20
2018-11-20T11:51:17.462Z,86.30
2018-11-20T11:54:03.752Z,86.40
2018-11-20T11:56:51.428Z,86.60
2018-11-20T11:59:38.011Z,86.10
2018-11-20T12:05:14.598Z,85.80
2018-11-20T12:07:56.215Z,85.70
2018-11-20T12:10:42.697Z,86.20
2018-11-20T12:13:36.589Z,86.20
2018-11-20T12:16:39.458Z,86.10
2018-11-20T12:19:26.205Z,85.70
2018-11-20T12:22:12.430Z,86.20
2018-11-20T12:25:14.945Z,86.20
2018-11-20T12:28:01.478Z,85.70
2018-11-20T12:30:54.767Z,85.50
2018-11-20T12:33:59.998Z,85.60
2018-11-20T12:36:39.283Z,85.70
2018-11-20T12:39:46.545Z,85.30
2018-11-20T12:42:33.129Z,85.60
2018-11-20T12:45:19.404Z,85.30
2018-11-20T12:48:19.138Z,85.60
2018-11-20T12:51:13.692Z,86.10
2018-11-20T12:54:10.331Z,85.10
2018-11-20T12:56:56.675Z,85.30
2018-11-20T12:59:43.261Z,84.90
2018-11-20T13:02:29.451Z,85.20
2018-11-20T13:05:17.123Z,85.60
2018-11-20T13:08:05.235Z,85.50
2018-11-20T13:11:08.141Z,85.20
2018-11-20T13:13:58.831Z,85.70
2018-11-20T13:16:41.340Z,85.40
2018-11-20T13:19:29.387Z,85.10
2018-11-20T13:22:14.120Z,85.00
2018-11-20T13:25:04.523Z,85.30
2018-11-20T13:28:10.419Z,85.40
2018-11-20T13:30:58.191Z,85.60
2018-11-20T13:33:37.475Z,85.50
2018-11-20T13:36:21.972Z,85.20
2018-11-20T13:39:18.455Z,85.50
2018-11-20T13:42:01.134Z,85.40
2018-11-20T13:44:49.549Z,84.90
2018-11-20T13:47:39.976Z,85.00
2018-11-20T13:50:27.144Z,85.20
2018-11-20T13:53:13.728Z,85.50
2018-11-20T13:56:01.469Z,85.20
2018-11-20T13:58:49.893Z,85.10
2018-11-20T14:01:37.601Z,85.20
2018-11-20T14:04:15.269Z,85.40
2018-11-20T14:07:08.873Z,85.50
2018-11-20T14:09:57.566Z,85.20
2018-11-20T14:12:43.964Z,85.40
2018-11-20T14:15:37.600Z,85.10
2018-11-20T14:18:24.169Z,85.10
2018-11-20T14:21:11.902Z,85.20
2018-11-20T14:24:08.635Z,85.60
2018-11-20T14:27:02.236Z,86.10
2018-11-20T14:29:44.368Z,87.10
2018-11-20T14:32:39.648Z,87.80
2018-11-20T14:35:26.188Z,88.60
2018-11-20T14:38:21.262Z,89.40
2018-11-20T14:41:07.983Z,90.10
2018-11-20T14:44:08.165Z,90.40
2018-11-20T14:46:54.698Z,90.70
2018-11-20T14:50:00.506Z,91.20
2018-11-20T14:52:48.212Z,91.50
2018-11-20T14:55:35.130Z,92.00
2018-11-20T14:58:28.259Z,92.50
2018-11-20T15:01:14.527Z,92.60
2018-11-20T15:04:11.054Z,92.80
2018-11-20T15:06:57.285Z,93.10
2018-11-20T15:09:44.167Z,93.40
2018-11-20T15:12:34.608Z,93.50
2018-11-20T15:15:28.210Z,93.70
2018-11-20T15:18:18.842Z,94.00
2018-11-20T15:21:05.517Z,94.10
2018-11-20T15:23:54.793Z,94.10
2018-11-20T15:26:39.222Z,94.40
2018-11-20T15:29:40.103Z,94.30
2018-11-20T15:32:29.258Z,94.50
2018-11-20T15:35:21.299Z,94.60
2018-11-20T15:38:14.738Z,94.70
2018-11-20T15:41:01.235Z,94.80
2018-11-20T15:43:52.994Z,94.80
2018-11-20T15:47:14.530Z,94.90
2018-11-20T15:50:01.036Z,94.90
2018-11-20T15:52:48.980Z,95.00
2018-11-20T15:55:35.847Z,95.00
2018-11-20T15:58:22.371Z,95.20
2018-11-20T16:01:23.172Z,95.10
2018-11-20T16:04:11.586Z,95.20
2018-11-20T16:07:02.042Z,95.20
2018-11-20T16:09:47.095Z,95.30
2018-11-20T16:12:35.147Z,95.70
2018-11-20T16:15:24.371Z,95.40
2018-11-20T16:18:10.818Z,95.50
2018-11-20T16:21:10.600Z,95.70
2018-11-20T16:23:57.360Z,95.80
2018-11-20T16:26:48.144Z,95.90
2018-11-20T16:29:45.303Z,96.00
2018-11-20T16:32:46.654Z,96.00
2018-11-20T16:35:52.553Z,96.00
2018-11-20T16:38:40.621Z,96.10
2018-11-20T16:41:34.302Z,96.40
2018-11-20T16:44:21.101Z,96.10
2018-11-20T16:47:07.997Z,96.00
2018-11-20T16:49:56.417Z,96.10
2018-11-20T16:52:45.425Z,96.00
2018-11-20T16:55:42.733Z,96.10
2018-11-20T16:58:43.885Z,96.20
2018-11-20T17:01:32.686Z,96.20
2018-11-20T17:04:21.157Z,96.00
2018-11-20T17:07:31.535Z,96.10
2018-11-20T17:10:22.374Z,96.00
2018-11-20T17:13:20.437Z,96.20
2018-11-20T17:16:10.477Z,96.20
2018-11-20T17:19:19.669Z,96.30
2018-11-20T17:22:13.439Z,96.20
2018-11-20T17:29:01.281Z,96.10
2018-11-20T17:32:03.862Z,96.10
2018-11-20T17:35:30.633Z,96.10
2018-11-20T17:42:33.526Z,96.00
2018-11-20T17:48:52.098Z,95.90
2018-11-20T17:51:34.439Z,96.10
2018-11-20T17:54:21.544Z,96.10
2018-11-20T17:57:12.469Z,96.20
2018-11-20T18:00:12.579Z,96.20
2018-11-20T18:02:59.817Z,96.30
2018-11-20T18:05:47.188Z,96.40
2018-11-20T18:08:41.325Z,96.40
2018-11-20T18:11:35.655Z,96.30
2018-11-20T18:14:32.309Z,96.20
2018-11-20T18:17:20.737Z,96.20
2018-11-20T18:20:07.878Z,96.10
2018-11-20T18:23:07.451Z,96.20
2018-11-20T18:26:05.482Z,96.00
2018-11-20T18:28:48.858Z,96.00
2018-11-20T18:31:44.723Z,96.00
2018-11-20T18:34:43.764Z,95.80
2018-11-20T18:37:24.943Z,96.00
2018-11-20T18:40:16.220Z,95.90
2018-11-20T18:43:10.342Z,95.90
2018-11-20T18:45:57.788Z,95.90
2018-11-20T18:48:47.857Z,95.80
2018-11-20T18:51:24.660Z,95.80
2018-11-20T18:54:24.763Z,95.90
2018-11-20T18:57:12.781Z,95.80
2018-11-20T18:59:54.696Z,95.70
2018-11-20T19:02:41.371Z,95.70
2018-11-20T19:05:41.588Z,95.60
2018-11-20T19:08:47.833Z,95.70
2018-11-20T19:11:34.653Z,95.70
2018-11-20T19:14:21.069Z,95.70
2018-11-20T19:17:21.248Z,95.60
2018-11-20T19:20:07.754Z,95.60
2018-11-20T19:22:59.134Z,95.50
2018-11-20T19:25:47.039Z,95.60
2018-11-20T19:28:34.035Z,95.50
2018-11-20T19:31:20.742Z,95.50
2018-11-20T19:34:07.482Z,95.50
2018-11-20T19:37:06.118Z,95.60
2018-11-20T19:39:53.410Z,95.30
2018-11-20T19:42:54.167Z,95.40
2018-11-20T19:45:40.603Z,95.30
2018-11-20T19:48:37.611Z,95.40
2018-11-20T19:51:24.478Z,95.40
2018-11-20T19:54:11.535Z,95.30
2018-11-20T19:57:08.566Z,95.20
2018-11-20T20:00:04.761Z,95.30
2018-11-20T20:02:51.453Z,95.30
2018-11-20T20:05:39.661Z,95.10
2018-11-20T20:08:48.593Z,95.50
2018-11-20T20:11:42.782Z,95.20
2018-11-20T20:14:34.336Z,95.20
2018-11-20T20:17:21.249Z,95.10
2018-11-20T20:20:08.698Z,95.10
2018-11-20T20:22:57.832Z,95.00
2018-11-20T20:25:45.719Z,95.00
2018-11-20T20:28:44.780Z,95.10
2018-11-20T20:31:38.627Z,95.00
2018-11-20T20:34:37.710Z,95.10
2018-11-20T20:37:37.338Z,95.10
2018-11-20T20:40:38.500Z,95.10
2018-11-20T20:43:44.915Z,95.00
2018-11-20T20:46:35.827Z,95.00
2018-11-20T20:49:26.672Z,94.90
2018-11-20T20:52:21.938Z,95.00
2018-11-20T20:55:08.965Z,94.90
2018-11-20T20:57:57.102Z,94.90
2018-11-20T21:00:50.295Z,94.90
2018-11-20T21:03:34.984Z,94.90
2018-11-20T21:06:33.147Z,94.90
2018-11-20T21:09:47.526Z,95.20
2018-11-20T21:12:36.946Z,94.70
2018-11-20T21:15:33.839Z,94.70
2018-11-20T21:18:32.956Z,94.80
2018-11-20T21:21:19.846Z,94.70
2018-11-20T21:24:08.515Z,94.80
2018-11-20T21:26:49.626Z,94.80
2018-11-20T21:29:47.138Z,94.80
2018-11-20T21:32:36.717Z,94.70
2018-11-20T21:35:23.696Z,94.70
2018-11-20T21:38:11.663Z,94.50
2018-11-20T21:40:58.298Z,94.50
2018-11-20T21:43:55.396Z,94.50
2018-11-20T21:46:43.691Z,94.50
2018-11-20T21:49:53.401Z,94.50
2018-11-20T21:52:56.501Z,94.30
2018-11-20T21:58:50.919Z,94.40
2018-11-20T22:01:45.025Z,94.30
2018-11-20T22:11:01.186Z,94.30
2018-11-20T22:13:44.961Z,94.40
2018-11-20T22:32:45.891Z,94.20
2018-11-20T22:34:50.248Z,94.10
2018-11-20T22:37:35.497Z,94.10
2018-11-20T22:41:06.235Z,94.20
2018-11-20T22:44:38.760Z,94.30
2018-11-20T22:48:14.626Z,94.10
2018-11-20T22:51:14.062Z,94.00
2018-11-20T22:54:27.124Z,93.90
2018-11-20T22:57:07.459Z,94.00
2018-11-20T23:00:00.456Z,93.90
2018-11-20T23:02:45.735Z,94.00
2018-11-20T23:05:31.088Z,93.90
2018-11-20T23:08:00.241Z,93.90
2018-11-20T23:11:18.306Z,93.80
2018-11-20T23:13:47.356Z,93.70
2018-11-20T23:16:16.498Z,93.80
2018-11-20T23:18:58.110Z,93.80
2018-11-20T23:21:38.901Z,93.90
2018-11-20T23:28:14.506Z,93.90
2018-11-20T23:30:43.594Z,93.90
2018-11-20T23:33:13.682Z,94.00
2018-11-20T23:35:42.747Z,94.00
2018-11-20T23:38:11.947Z,94.20
2018-11-20T23:41:02.457Z,94.20
2018-11-20T23:43:31.322Z,94.20
2018-11-20T23:46:00.672Z,94.30
2018-11-20T23:48:29.815Z,94.30
2018-11-20T23:50:58.982Z,94.40
2018-11-20T23:53:30.729Z,94.40
2018-11-20T23:56:21.449Z,94.40
2018-11-20T23:58:50.357Z,94.40
